Time;durP1;ratioP1;P1;durP2;ratioP2;P2;SDS_P1;SDS_P2;PMS_P1;PMS_P2;Temp;Humidity;BMP_temperature;BMP_pressure;BME280_temperature;BME280_humidity;BME280_pressure;Samples;Min_cycle;Max_cycle;Signal;HPM_P1;HPM_P2
2022/06/12 00:00:21;;;;;;;12.93;8.38;;;18.10;1.00;;;;;;5048048;28;20564;-56
2022/06/12 00:02:46;;;;;;;12.75;7.82;;;18.00;5.00;;;;;;5049292;28;20389;-58
2022/06/12 00:05:15;;;;;;;12.40;8.47;;;17.90;99.90;;;;;;5048302;28;20878;-56
2022/06/12 00:07:41;;;;;;;15.00;8.27;;;17.90;1.00;;;;;;5049681;28;20421;-56
2022/06/12 00:10:09;;;;;;;15.00;8.20;;;17.90;1.00;;;;;;5048668;28;20811;-56
2022/06/12 00:12:35;;;;;;;13.55;8.40;;;17.80;1.00;;;;;;5048670;28;20417;-56
2022/06/12 00:15:01;;;;;;;14.40;8.30;;;17.90;1.00;;;;;;5048367;28;20402;-53
2022/06/12 00:17:26;;;;;;;12.73;8.30;;;17.80;15.80;;;;;;5048919;28;20413;-56
2022/06/12 00:19:52;;;;;;;13.90;7.73;;;17.80;99.90;;;;;;5049554;28;20377;-56
2022/06/12 00:22:19;;;;;;;12.90;8.20;;;17.80;21.10;;;;;;5047788;28;20444;-56
2022/06/12 00:24:45;;;;;;;12.93;7.90;;;17.90;1.00;;;;;;5049183;28;20385;-56
2022/06/12 00:27:11;;;;;;;13.50;7.90;;;17.80;1.00;;;;;;5047770;28;20396;-56
2022/06/12 00:29:39;;;;;;;13.63;7.70;;;17.80;99.90;;;;;;5048275;28;20762;-56
2022/06/12 00:32:07;;;;;;;17.00;8.47;;;17.80;99.90;;;;;;5048081;28;20397;-56
2022/06/12 00:34:37;;;;;;;11.53;7.63;;;17.80;1.00;;;;;;5048357;28;20766;-56
2022/06/12 00:37:04;;;;;;;12.50;8.07;;;17.90;1.00;;;;;;5048418;28;20431;-53
2022/06/12 00:39:32;;;;;;;18.17;9.10;;;17.90;99.90;;;;;;5047520;28;20932;-56
2022/06/12 00:42:00;;;;;;;13.38;8.30;;;17.90;1.00;;;;;;5048834;28;20493;-56
2022/06/12 00:44:31;;;;;;;12.15;7.93;;;18.00;79.40;;;;;;5048120;28;20409;-57
2022/06/12 00:47:04;;;;;;;12.93;8.13;;;17.90;83.90;;;;;;5048386;28;20436;-56
2022/06/12 00:49:46;;;;;;;15.00;8.18;;;17.90;1.00;;;;;;5048595;28;20443;-55
2022/06/12 00:52:18;;;;;;;13.73;8.38;;;17.80;99.90;;;;;;5047873;28;20401;-57
2022/06/12 00:54:48;;;;;;;16.25;8.35;;;17.80;54.70;;;;;;5048732;28;20401;-56
2022/06/12 00:57:15;;;;;;;13.25;8.52;;;17.90;2.60;;;;;;5048020;28;20498;-56
2022/06/12 00:59:45;;;;;;;12.85;7.40;;;17.80;1.00;;;;;;5048580;28;20468;-57
2022/06/12 01:02:14;;;;;;;13.05;8.20;;;17.80;1.00;;;;;;5048077;28;20409;-57
2022/06/12 01:07:30;;;;;;;13.07;8.53;;;17.70;74.30;;;;;;5047909;28;20500;-57
2022/06/12 01:09:59;;;;;;;15.13;8.30;;;17.70;1.00;;;;;;5028901;28;20388;-57
2022/06/12 01:12:28;;;;;;;12.65;7.70;;;17.70;1.00;;;;;;5045412;28;20500;-57
2022/06/12 01:15:00;;;;;;;13.75;8.00;;;17.70;1.00;;;;;;5048615;28;20397;-56
2022/06/12 01:17:28;;;;;;;14.37;7.70;;;17.80;1.00;;;;;;5050743;28;20435;-57
2022/06/12 01:19:58;;;;;;;15.23;8.03;;;17.70;1.00;;;;;;5052563;28;20815;-57
2022/06/12 01:23:01;;;;;;;13.30;7.60;;;17.70;1.00;;;;;;5049380;28;20408;-56
2022/06/12 01:26:20;;;;;;;12.40;8.10;;;17.60;1.00;;;;;;5045535;28;20417;-57
2022/06/12 01:28:52;;;;;;;12.35;7.50;;;17.50;1.00;;;;;;5006652;28;20734;-57
2022/06/12 01:31:45;;;;;;;12.95;7.90;;;17.50;99.90;;;;;;5051066;28;20409;-58
2022/06/12 01:34:26;;;;;;;14.93;8.20;;;17.50;1.00;;;;;;5031347;28;20776;-56
2022/06/12 01:37:01;;;;;;;13.13;7.57;;;17.40;1.00;;;;;;5052113;28;20405;-57
2022/06/12 01:39:29;;;;;;;12.90;7.93;;;17.40;1.00;;;;;;5051281;28;20854;-57
2022/06/12 01:42:33;;;;;;;13.05;7.70;;;17.40;99.90;;;;;;5051303;28;20403;-57
2022/06/12 01:45:21;;;;;;;14.75;8.10;;;17.30;99.90;;;;;;5051928;28;20456;-57
2022/06/12 01:48:02;;;;;;;12.48;8.20;;;17.10;99.90;;;;;;5042577;28;20389;-59
2022/06/12 01:50:43;;;;;;;13.48;8.20;;;17.00;99.90;;;;;;5033084;28;20418;-57
2022/06/12 01:53:24;;;;;;;14.18;8.90;;;17.00;1.00;;;;;;5051020;28;20428;-57
2022/06/12 01:56:11;;;;;;;13.45;8.43;;;17.00;99.90;;;;;;5051381;28;20732;-57
2022/06/12 01:59:00;;;;;;;13.43;7.80;;;17.00;99.90;;;;;;5031484;28;20383;-57
2022/06/12 02:01:48;;;;;;;12.82;9.02;;;17.00;99.90;;;;;;5031385;28;20387;-57
2022/06/12 02:04:33;;;;;;;14.45;8.50;;;17.10;1.00;;;;;;5031017;28;20844;-57
2022/06/12 02:07:12;;;;;;;14.07;8.63;;;17.20;10.70;;;;;;5045636;28;20402;-57
2022/06/12 02:09:43;;;;;;;14.45;8.60;;;17.10;85.50;;;;;;5051730;28;20401;-57
2022/06/12 02:15:33;;;;;;;12.02;8.65;;;17.00;1.00;;;;;;5050730;28;20885;-54
2022/06/12 02:18:05;;;;;;;14.02;8.00;;;17.00;99.90;;;;;;5050697;28;20474;-56
2022/06/12 02:20:36;;;;;;;14.13;8.80;;;17.00;1.00;;;;;;5050588;28;20777;-57
2022/06/12 02:23:08;;;;;;;13.90;8.48;;;17.00;1.00;;;;;;5050440;28;20417;-54
2022/06/12 02:25:38;;;;;;;14.07;8.45;;;16.90;99.90;;;;;;5051168;28;20421;-56
2022/06/12 02:28:12;;;;;;;16.13;8.48;;;16.90;99.90;;;;;;5049189;28;20462;-55
2022/06/12 02:30:46;;;;;;;12.73;8.30;;;16.90;89.40;;;;;;5050586;28;20555;-56
2022/06/12 02:33:22;;;;;;;11.85;7.70;;;16.90;99.90;;;;;;5050108;28;20482;-57
2022/06/12 02:35:52;;;;;;;11.95;7.30;;;17.00;1.00;;;;;;5050802;28;20401;-57
2022/06/12 02:38:21;;;;;;;11.20;7.00;;;17.00;99.90;;;;;;5049466;28;20759;-56
2022/06/12 02:41:01;;;;;;;12.52;8.48;;;17.10;1.00;;;;;;5051068;28;20408;-57
2022/06/12 02:43:31;;;;;;;12.60;7.60;;;17.20;99.90;;;;;;5049450;28;20401;-56
2022/06/12 02:46:10;;;;;;;16.27;8.63;;;17.00;99.90;;;;;;5049819;28;20401;-57
2022/06/12 02:48:36;;;;;;;14.07;8.93;;;16.90;1.00;;;;;;5050351;28;20472;-57
2022/06/12 02:51:26;;;;;;;14.67;8.67;;;16.80;99.90;;;;;;5050216;28;20492;-57
2022/06/12 02:54:14;;;;;;;14.45;9.48;;;16.80;1.00;;;;;;5049502;28;20412;-56
2022/06/12 02:57:00;;;;;;;17.58;9.65;;;16.70;99.90;;;;;;5050103;28;20401;-57
2022/06/12 02:59:56;;;;;;;13.20;9.50;;;16.70;99.90;;;;;;5048825;28;20487;-56
2022/06/12 03:02:33;;;;;;;17.25;10.10;;;16.50;1.00;;;;;;5048884;28;20409;-57
2022/06/12 03:05:07;;;;;;;16.45;10.00;;;16.60;1.00;;;;;;5050156;28;20473;-57
2022/06/12 03:07:33;;;;;;;15.45;9.52;;;16.50;1.00;;;;;;5050443;28;20475;-58
2022/06/12 03:10:05;;;;;;;16.92;9.10;;;16.50;99.90;;;;;;5032050;28;20898;-57
2022/06/12 03:12:32;;;;;;;17.80;9.52;;;16.40;99.90;;;;;;5049317;28;20393;-57
2022/06/12 03:14:59;;;;;;;16.20;11.00;;;16.50;99.90;;;;;;5049296;28;20460;-56
2022/06/12 03:17:25;;;;;;;17.55;10.88;;;16.50;99.90;;;;;;5049569;28;20469;-57
2022/06/12 03:19:54;;;;;;;15.50;9.75;;;16.50;99.90;;;;;;5048843;28;20468;-56
2022/06/12 03:22:43;;;;;;;18.95;10.70;;;16.60;99.90;;;;;;5048583;28;20416;-56
2022/06/12 03:25:22;;;;;;;17.50;10.98;;;16.60;99.90;;;;;;5031159;28;20511;-56
2022/06/12 03:28:04;;;;;;;20.55;11.70;;;16.60;89.10;;;;;;5049452;28;20398;-56
2022/06/12 03:30:42;;;;;;;18.50;11.70;;;16.70;99.90;;;;;;5029793;28;20375;-56
2022/06/12 03:33:23;;;;;;;19.23;11.32;;;16.70;2.70;;;;;;5038355;28;20912;-54
2022/06/12 03:36:09;;;;;;;14.25;10.25;;;16.70;97.10;;;;;;5048260;28;20401;-58
2022/06/12 03:38:52;;;;;;;15.02;10.10;;;16.60;99.90;;;;;;5049115;28;20429;-56
2022/06/12 03:41:36;;;;;;;16.58;10.75;;;16.60;99.90;;;;;;5032173;28;20480;-56
2022/06/12 03:44:12;;;;;;;16.45;10.50;;;16.60;99.90;;;;;;5049660;28;20453;-56
2022/06/12 03:47:06;;;;;;;14.75;10.80;;;16.90;93.90;;;;;;5049390;28;20435;-56
2022/06/12 03:49:38;;;;;;;15.00;10.45;;;16.70;70.50;;;;;;5047163;28;20420;-56
2022/06/12 03:52:21;;;;;;;17.08;10.07;;;16.70;23.10;;;;;;5049151;28;20392;-55
2022/06/12 03:55:03;;;;;;;16.50;10.15;;;16.70;21.80;;;;;;5046416;28;20451;-56
2022/06/12 03:57:52;;;;;;;16.13;10.50;;;16.70;1.00;;;;;;5048072;28;20436;-56
2022/06/12 04:00:38;;;;;;;16.08;10.00;;;16.80;1.00;;;;;;5037863;28;20389;-56
2022/06/12 04:03:05;;;;;;;15.63;10.57;;;16.80;1.00;;;;;;5049033;28;20484;-56
2022/06/12 04:05:36;;;;;;;15.38;10.13;;;16.90;1.00;;;;;;5048450;28;20397;-57
2022/06/12 04:08:04;;;;;;;18.20;10.20;;;16.80;1.00;;;;;;5048792;28;20393;-57
2022/06/12 04:10:34;;;;;;;15.52;9.88;;;16.90;1.00;;;;;;5048490;28;20397;-57
2022/06/12 04:13:01;;;;;;;15.13;9.83;;;16.90;1.00;;;;;;5048673;28;20843;-57
2022/06/12 04:16:04;;;;;;;15.48;9.60;;;17.00;1.00;;;;;;5046462;28;20451;-57
2022/06/12 04:18:32;;;;;;;13.45;9.43;;;17.00;99.90;;;;;;5028539;28;20497;-56
2022/06/12 04:21:07;;;;;;;15.27;9.50;;;17.10;99.90;;;;;;5047349;28;20417;-56
2022/06/12 04:23:56;;;;;;;13.60;9.50;;;17.20;99.90;;;;;;5048138;28;20422;-57
2022/06/12 04:26:47;;;;;;;15.70;10.50;;;17.30;47.70;;;;;;5047446;28;20433;-56
2022/06/12 04:29:13;;;;;;;16.95;10.18;;;17.40;48.10;;;;;;5047906;28;20424;-56
2022/06/12 04:31:44;;;;;;;17.70;10.00;;;17.50;1.00;;;;;;5049271;28;20854;-56
2022/06/12 04:34:13;;;;;;;15.07;9.70;;;17.50;1.00;;;;;;5047624;28;20932;-57
2022/06/12 04:36:40;;;;;;;15.73;9.80;;;17.60;99.90;;;;;;5048548;28;20397;-57
2022/06/12 04:39:07;;;;;;;16.45;9.68;;;17.80;99.90;;;;;;5048802;28;20902;-55
2022/06/12 04:41:35;;;;;;;14.50;9.75;;;18.20;52.20;;;;;;5048613;28;20424;-57
2022/06/12 04:44:02;;;;;;;14.20;9.67;;;17.90;1.00;;;;;;5048289;28;20801;-57
2022/06/12 04:46:28;;;;;;;13.23;9.48;;;18.00;99.90;;;;;;5047971;28;20461;-56
2022/06/12 04:48:56;;;;;;;16.20;9.45;;;18.10;99.90;;;;;;5048792;28;21085;-56
2022/06/12 04:51:22;;;;;;;13.98;10.15;;;18.20;1.00;;;;;;5048878;28;20447;-57
2022/06/12 04:53:48;;;;;;;17.52;11.35;;;18.20;1.00;;;;;;5052211;28;20409;-57
2022/06/12 04:56:16;;;;;;;15.87;10.57;;;18.40;1.00;;;;;;5051944;28;20397;-56
2022/06/12 04:58:42;;;;;;;14.18;9.38;;;18.80;1.00;;;;;;5051798;28;20389;-57
2022/06/12 05:01:09;;;;;;;15.10;9.57;;;19.60;1.00;;;;;;5052388;28;20393;-54
2022/06/12 05:03:35;;;;;;;12.75;8.80;;;20.50;1.00;;;;;;5052512;28;20389;-57
2022/06/12 05:06:01;;;;;;;11.77;8.52;;;21.60;64.00;;;;;;5052556;28;20390;-57
2022/06/12 05:08:27;;;;;;;13.15;8.75;;;22.70;1.00;;;;;;5051453;28;20454;-57
2022/06/12 05:10:53;;;;;;;14.27;8.90;;;23.90;1.00;;;;;;5052212;28;20464;-57
2022/06/12 05:13:19;;;;;;;14.15;8.98;;;24.80;99.90;;;;;;5051056;28;20409;-57
2022/06/12 05:15:46;;;;;;;14.48;8.80;;;25.40;99.90;;;;;;5052216;28;20394;-57
2022/06/12 05:18:15;;;;;;;14.67;9.13;;;26.20;99.90;;;;;;5051467;28;20879;-57
2022/06/12 05:20:41;;;;;;;12.63;8.95;;;26.80;99.90;;;;;;5049965;28;20435;-57
2022/06/12 05:23:08;;;;;;;16.05;10.18;;;26.60;99.90;;;;;;5051290;28;20409;-55
2022/06/12 05:25:35;;;;;;;15.13;8.95;;;26.10;99.90;;;;;;5051626;28;20878;-58
2022/06/12 05:28:03;;;;;;;14.63;9.63;;;26.20;99.90;;;;;;5051734;28;20398;-57
2022/06/12 05:30:31;;;;;;;14.25;9.65;;;26.60;99.90;;;;;;5050963;28;20489;-57
2022/06/12 05:32:59;;;;;;;12.80;9.23;;;26.60;99.90;;;;;;5050453;28;20422;-56
2022/06/12 05:35:27;;;;;;;12.82;8.55;;;26.60;99.90;;;;;;5051573;28;20411;-58
2022/06/12 05:37:53;;;;;;;13.18;9.23;;;27.20;99.90;;;;;;5051490;28;20397;-57
2022/06/12 05:40:27;;;;;;;12.93;9.33;;;28.10;99.90;;;;;;5050986;28;20468;-55
2022/06/12 05:42:53;;;;;;;13.52;8.80;;;29.00;99.90;;;;;;5049717;28;20401;-55
2022/06/12 05:45:23;;;;;;;13.18;9.00;;;28.90;99.90;;;;;;5050055;28;20402;-55
2022/06/12 05:47:55;;;;;;;13.20;9.40;;;29.20;99.90;;;;;;5051041;28;20394;-53
2022/06/12 05:50:24;;;;;;;11.70;10.10;;;29.80;99.90;;;;;;5050590;28;20404;-56
2022/06/12 05:52:50;;;;;;;13.68;10.00;;;29.80;99.90;;;;;;5050743;28;21021;-53
2022/06/12 05:55:16;;;;;;;12.77;10.40;;;29.90;99.90;;;;;;5050406;28;20401;-55
2022/06/12 05:57:41;;;;;;;13.70;10.63;;;30.50;99.90;;;;;;5047577;28;20399;-55
2022/06/12 06:00:13;;;;;;;11.57;10.05;;;31.10;99.90;;;;;;5051792;28;20400;-55
2022/06/12 06:02:39;;;;;;;13.60;9.82;;;31.60;99.90;;;;;;5051700;28;20452;-55
2022/06/12 06:05:08;;;;;;;11.70;9.77;;;31.70;99.90;;;;;;5040682;28;22834;-55
2022/06/12 06:07:35;;;;;;;10.93;8.43;;;31.50;99.90;;;;;;5050383;28;20440;-55
2022/06/12 06:10:02;;;;;;;11.38;8.55;;;32.30;99.90;;;;;;5034990;28;20523;-55
2022/06/12 06:12:29;;;;;;;13.07;8.38;;;32.70;99.90;;;;;;5051916;28;20403;-55
2022/06/12 06:14:54;;;;;;;11.27;8.00;;;32.10;99.90;;;;;;5052147;28;20452;-55
2022/06/12 06:17:20;;;;;;;12.00;7.90;;;32.70;99.90;;;;;;5048875;28;20421;-55
2022/06/12 06:19:45;;;;;;;12.35;9.55;;;32.90;99.90;;;;;;5047471;28;20477;-55
2022/06/12 06:22:16;;;;;;;12.55;8.35;;;33.80;99.90;;;;;;5049432;28;20484;-57
2022/06/12 06:24:42;;;;;;;11.70;9.07;;;34.30;99.90;;;;;;5049620;28;20413;-56
2022/06/12 06:27:09;;;;;;;13.15;9.02;;;34.20;99.90;;;;;;5052375;28;20399;-56
2022/06/12 06:29:36;;;;;;;12.32;7.70;;;33.80;99.90;;;;;;5049312;28;20547;-55
2022/06/12 06:32:03;;;;;;;10.52;7.25;;;34.10;99.90;;;;;;5047431;28;20430;-56
2022/06/12 06:34:29;;;;;;;11.00;7.20;;;34.10;99.90;;;;;;5047504;28;20416;-55
2022/06/12 06:36:54;;;;;;;11.53;7.97;;;33.60;99.90;;;;;;5046882;28;20540;-55
2022/06/12 06:39:21;;;;;;;13.20;7.80;;;33.60;99.90;;;;;;5046963;28;20428;-57
2022/06/12 06:41:46;;;;;;;11.75;7.32;;;32.90;99.90;;;;;;5047019;28;20462;-55
2022/06/12 06:46:57;;;;;;;11.75;8.73;;;33.80;99.90;;;;;;5048207;28;20450;-55
2022/06/12 06:49:23;;;;;;;11.73;8.82;;;32.90;99.90;;;;;;5048928;28;20397;-54
2022/06/12 06:51:49;;;;;;;10.80;7.97;;;32.30;99.90;;;;;;5050059;28;20386;-54
2022/06/12 06:54:16;;;;;;;12.38;7.50;;;32.30;99.90;;;;;;5048022;28;20445;-55
2022/06/12 06:56:42;;;;;;;10.30;8.35;;;32.00;99.90;;;;;;5049875;28;20469;-54
2022/06/12 06:59:08;;;;;;;10.95;7.47;;;31.40;99.90;;;;;;5050468;28;20931;-54
2022/06/12 07:01:34;;;;;;;10.63;8.10;;;31.60;99.90;;;;;;5049275;28;20398;-54
2022/06/12 07:04:00;;;;;;;9.10;7.70;;;31.90;99.90;;;;;;5031825;28;20918;-55
2022/06/12 07:06:26;;;;;;;9.73;7.10;;;33.00;99.90;;;;;;5049096;28;20949;-55
2022/06/12 07:08:54;;;;;;;10.68;7.50;;;34.20;99.90;;;;;;5050348;28;20393;-55
2022/06/12 07:11:19;;;;;;;9.38;6.07;;;34.80;99.90;;;;;;5049401;28;20720;-55
2022/06/12 07:13:45;;;;;;;7.75;5.07;;;35.20;99.90;;;;;;5049292;28;20476;-55
2022/06/12 07:16:11;;;;;;;10.48;6.45;;;35.70;99.90;;;;;;5053075;28;20394;-56
2022/06/12 07:18:37;;;;;;;8.50;4.87;;;36.50;99.90;;;;;;5049620;28;20793;-55
2022/06/12 07:21:03;;;;;;;9.47;5.50;;;36.80;99.90;;;;;;5049877;28;20704;-55
2022/06/12 07:23:31;;;;;;;7.78;4.47;;;36.70;99.90;;;;;;5048947;28;20445;-55
2022/06/12 07:26:03;;;;;;;8.70;4.80;;;37.10;99.90;;;;;;5050261;28;20424;-55
2022/06/12 07:28:29;;;;;;;11.00;5.63;;;37.00;99.90;;;;;;5048290;28;20413;-55
2022/06/12 07:30:54;;;;;;;8.80;5.30;;;37.10;99.90;;;;;;5053810;28;20393;-55
2022/06/12 07:33:20;;;;;;;9.38;5.00;;;37.40;99.90;;;;;;5040425;28;20403;-55
2022/06/12 07:35:47;;;;;;;9.10;5.43;;;37.40;99.90;;;;;;5043745;28;20496;-55
2022/06/12 07:38:15;;;;;;;11.50;7.97;;;37.10;99.90;;;;;;5040503;28;20445;-57
2022/06/12 07:40:45;;;;;;;10.73;9.63;;;35.90;99.90;;;;;;5048610;28;20459;-56
2022/06/12 07:43:12;;;;;;;9.98;4.80;;;36.00;99.90;;;;;;5041731;28;20755;-57
2022/06/12 07:45:39;;;;;;;10.15;5.28;;;36.20;99.90;;;;;;5040597;28;20778;-55
2022/06/12 07:48:05;;;;;;;8.90;5.00;;;37.10;99.90;;;;;;5041942;28;20397;-55
2022/06/12 07:50:31;;;;;;;9.20;5.10;;;37.80;99.90;;;;;;5039046;28;20472;-55
2022/06/12 07:52:58;;;;;;;8.30;5.00;;;37.00;99.90;;;;;;5038872;28;20511;-55
2022/06/12 07:55:24;;;;;;;8.77;4.70;;;36.70;99.90;;;;;;5042377;28;20503;-55
2022/06/12 07:57:50;;;;;;;9.45;5.10;;;36.60;99.90;;;;;;5041460;28;20420;-55
2022/06/12 08:00:18;;;;;;;9.00;4.93;;;36.60;99.90;;;;;;5021071;28;20435;-55
2022/06/12 08:02:45;;;;;;;8.30;5.20;;;36.80;99.90;;;;;;5042234;28;20692;-55
2022/06/12 08:05:12;;;;;;;9.20;5.90;;;37.50;99.90;;;;;;5043712;28;20455;-56
2022/06/12 08:07:37;;;;;;;10.00;5.30;;;38.10;99.90;;;;;;5047493;28;20393;-56
2022/06/12 08:10:04;;;;;;;9.10;5.20;;;38.90;99.90;;;;;;5020682;28;20387;-55
2022/06/12 08:12:37;;;;;;;11.60;5.78;;;38.80;99.90;;;;;;5038863;28;20432;-55
2022/06/12 08:15:05;;;;;;;8.07;4.45;;;38.30;99.90;;;;;;5043546;28;20435;-55
2022/06/12 08:17:30;;;;;;;10.93;4.90;;;37.70;99.90;;;;;;5043656;28;20395;-55
2022/06/12 08:22:40;;;;;;;9.90;4.97;;;36.90;99.90;;;;;;5060001;28;20782;-55
2022/06/12 08:25:07;;;;;;;11.57;5.10;;;36.70;99.90;;;;;;5069950;28;20376;-56
2022/06/12 08:27:33;;;;;;;11.55;5.40;;;37.90;99.90;;;;;;5050123;28;20725;-55
2022/06/12 08:29:58;;;;;;;10.65;5.15;;;37.80;99.90;;;;;;5055241;28;20885;-55
2022/06/12 08:32:24;;;;;;;9.27;5.20;;;37.20;99.90;;;;;;5044853;28;20455;-55
2022/06/12 08:34:57;;;;;;;9.70;5.40;;;37.00;99.90;;;;;;5065579;28;20387;-56
2022/06/12 08:37:30;;;;;;;9.55;4.80;;;37.60;99.90;;;;;;5066529;28;20372;-55
2022/06/12 08:39:57;;;;;;;7.88;4.30;;;38.10;99.90;;;;;;5051895;28;20397;-55
2022/06/12 08:42:41;;;;;;;9.70;4.90;;;37.50;99.90;;;;;;5056936;28;20397;-56
2022/06/12 08:45:16;;;;;;;8.40;4.55;;;36.40;99.90;;;;;;5048552;28;20408;-56
2022/06/12 08:47:51;;;;;;;11.77;4.80;;;37.90;99.90;;;;;;5052953;28;20869;-56
2022/06/12 08:50:52;;;;;;;8.60;4.70;;;39.80;99.90;;;;;;5034108;28;20443;-56
2022/06/12 08:53:41;;;;;;;8.00;4.50;;;39.60;99.90;;;;;;5051902;28;20527;-56
2022/06/12 08:56:18;;;;;;;8.20;3.77;;;40.20;99.90;;;;;;5061907;28;20437;-56
2022/06/12 08:58:54;;;;;;;8.65;3.70;;;39.50;99.90;;;;;;5072538;28;20398;-56
2022/06/12 09:01:20;;;;;;;9.18;4.30;;;39.90;99.90;;;;;;5072089;28;20387;-56
2022/06/12 09:03:53;;;;;;;7.50;3.37;;;40.00;99.90;;;;;;5054853;28;20383;-58
2022/06/12 09:06:30;;;;;;;8.55;3.70;;;40.10;99.90;;;;;;5051870;28;20392;-56
2022/06/12 09:09:16;;;;;;;7.80;3.10;;;39.80;99.90;;;;;;5051956;28;20482;-56
2022/06/12 09:11:46;;;;;;;8.05;3.90;;;39.80;99.90;;;;;;5050603;28;20531;-57
2022/06/12 09:14:38;;;;;;;6.90;3.20;;;39.50;99.90;;;;;;5056417;28;20407;-56
2022/06/12 09:17:04;;;;;;;10.10;6.00;;;40.60;99.90;;;;;;5067835;28;20486;-56
2022/06/12 09:19:58;;;;;;;7.85;3.35;;;41.00;99.90;;;;;;5071596;28;20517;-55
2022/06/12 09:22:27;;;;;;;7.40;3.45;;;40.90;99.90;;;;;;5053525;28;20461;-56
2022/06/12 09:25:06;;;;;;;8.10;3.63;;;40.90;99.90;;;;;;5072576;28;20392;-55
2022/06/12 09:27:49;;;;;;;8.90;3.50;;;40.90;99.90;;;;;;5071612;28;20380;-55
2022/06/12 09:30:25;;;;;;;7.95;3.30;;;40.20;99.90;;;;;;5071901;28;20433;-57
2022/06/12 09:33:18;;;;;;;9.75;3.42;;;40.40;99.90;;;;;;5072045;28;20418;-56
2022/06/12 09:36:02;;;;;;;7.55;3.22;;;40.60;99.90;;;;;;5072462;28;20384;-56
2022/06/12 09:39:00;;;;;;;7.00;3.28;;;40.40;99.90;;;;;;5070882;28;20380;-55
2022/06/12 09:41:44;;;;;;;8.43;3.38;;;38.80;99.90;;;;;;5071758;28;20376;-55
2022/06/12 09:44:26;;;;;;;8.75;3.40;;;38.10;99.90;;;;;;5072092;28;20384;-55
2022/06/12 09:47:10;;;;;;;8.97;3.70;;;37.80;99.90;;;;;;5072158;28;20395;-55
2022/06/12 09:49:55;;;;;;;6.70;3.40;;;37.60;99.90;;;;;;5071273;28;20817;-56
2022/06/12 09:52:21;;;;;;;7.40;3.72;;;38.00;99.90;;;;;;5071477;28;20857;-56
2022/06/12 09:55:16;;;;;;;9.47;4.10;;;37.60;99.90;;;;;;5071591;28;20403;-55
2022/06/12 09:57:59;;;;;;;7.10;3.55;;;37.20;99.90;;;;;;5053711;28;20457;-56
2022/06/12 10:00:41;;;;;;;8.05;4.10;;;37.60;99.90;;;;;;5071281;28;20407;-56
2022/06/12 10:03:07;;;;;;;8.10;3.70;;;38.20;99.90;;;;;;5050279;28;20390;-56
2022/06/12 10:05:36;;;;;;;7.93;3.20;;;38.10;99.90;;;;;;5050633;28;20386;-56
2022/06/12 10:08:31;;;;;;;9.40;8.40;;;37.40;99.90;;;;;;5051171;28;20476;-56
2022/06/12 10:11:09;;;;;;;8.80;7.13;;;35.90;99.90;;;;;;5050845;28;20398;-55
2022/06/12 10:13:44;;;;;;;8.95;6.50;;;34.60;99.90;;;;;;5044564;28;20988;-56
2022/06/12 10:16:16;;;;;;;12.45;11.15;;;35.80;99.90;;;;;;5031792;28;20413;-56
2022/06/12 10:18:52;;;;;;;7.20;3.50;;;36.80;99.90;;;;;;5031278;28;20880;-56
2022/06/12 10:21:21;;;;;;;8.55;3.33;;;38.30;99.90;;;;;;5030810;28;20833;-56
2022/06/12 10:23:48;;;;;;;7.43;3.25;;;38.20;99.90;;;;;;5031212;28;20415;-56
2022/06/12 10:26:26;;;;;;;7.03;3.53;;;38.40;99.90;;;;;;5031205;28;20394;-59
2022/06/12 10:29:14;;;;;;;8.82;3.40;;;38.60;99.90;;;;;;5031006;28;20868;-55
2022/06/12 10:32:04;;;;;;;9.57;6.78;;;37.50;99.90;;;;;;5030805;28;20467;-57
2022/06/12 10:34:32;;;;;;;8.80;7.20;;;36.20;99.90;;;;;;5030240;28;20422;-55
2022/06/12 10:37:17;;;;;;;7.90;6.40;;;35.30;99.90;;;;;;5030946;28;21285;-55
2022/06/12 10:39:42;;;;;;;7.68;6.32;;;34.30;99.90;;;;;;5031217;28;20371;-55
2022/06/12 10:42:34;;;;;;;8.10;6.20;;;33.80;99.90;;;;;;5031005;28;20391;-55
2022/06/12 10:45:00;;;;;;;8.50;6.78;;;33.70;99.90;;;;;;5031179;28;20391;-55
2022/06/12 10:47:29;;;;;;;9.50;7.15;;;33.50;99.90;;;;;;5030257;28;20466;-55
2022/06/12 10:50:23;;;;;;;10.77;7.35;;;32.70;99.90;;;;;;5029816;28;20383;-55
2022/06/12 10:52:55;;;;;;;8.97;6.00;;;33.40;99.90;;;;;;5015349;28;20959;-55
2022/06/12 10:55:31;;;;;;;9.57;6.30;;;33.80;99.90;;;;;;5029991;28;20395;-56
2022/06/12 10:58:16;;;;;;;7.50;6.20;;;33.70;99.90;;;;;;5030592;28;20383;-56
2022/06/12 11:00:43;;;;;;;8.20;5.97;;;34.10;99.90;;;;;;5030681;28;20371;-56
2022/06/12 11:03:47;;;;;;;9.15;5.88;;;34.10;99.90;;;;;;5012803;28;20718;-56
2022/06/12 11:06:22;;;;;;;8.50;6.40;;;33.60;99.90;;;;;;5030760;28;20886;-56
2022/06/12 11:09:12;;;;;;;9.63;6.85;;;33.30;99.90;;;;;;5030380;28;20841;-56
2022/06/12 11:12:11;;;;;;;8.93;6.90;;;33.40;99.90;;;;;;5029893;28;20485;-56
2022/06/12 11:14:55;;;;;;;9.43;6.80;;;33.50;99.90;;;;;;5042528;28;20409;-56
2022/06/12 11:18:00;;;;;;;8.43;5.68;;;33.60;99.90;;;;;;5029676;28;20497;-56
2022/06/12 11:21:05;;;;;;;7.82;6.50;;;33.50;99.90;;;;;;5048287;28;20467;-55
2022/06/12 11:23:42;;;;;;;8.45;6.32;;;33.50;99.90;;;;;;4988970;28;21376;-55
2022/06/12 11:26:40;;;;;;;8.93;6.87;;;33.30;99.90;;;;;;5035815;28;20402;-56
2022/06/12 11:29:14;;;;;;;11.23;6.50;;;33.30;99.90;;;;;;5016900;28;20420;-55
2022/06/12 11:31:49;;;;;;;7.78;6.93;;;33.10;99.90;;;;;;5048639;28;21005;-55
2022/06/12 11:34:44;;;;;;;8.40;7.05;;;32.70;99.90;;;;;;5048588;28;20500;-56
2022/06/12 11:37:36;;;;;;;8.32;7.18;;;32.80;99.90;;;;;;5048994;28;20877;-55
2022/06/12 11:40:28;;;;;;;8.60;7.20;;;33.00;99.90;;;;;;5048412;28;20941;-54
2022/06/12 11:43:14;;;;;;;8.60;5.90;;;32.90;99.90;;;;;;5048527;28;20421;-54
2022/06/12 11:45:51;;;;;;;7.95;6.38;;;32.50;99.90;;;;;;5040854;28;20758;-55
2022/06/12 11:48:32;;;;;;;8.32;6.20;;;32.10;99.90;;;;;;5044406;28;20451;-56
2022/06/12 11:51:15;;;;;;;9.52;7.50;;;31.80;99.90;;;;;;5049635;28;20455;-54
2022/06/12 11:53:59;;;;;;;9.15;6.50;;;32.20;99.90;;;;;;5049346;28;20551;-54
2022/06/12 11:56:46;;;;;;;8.88;7.00;;;32.30;99.90;;;;;;5048794;28;20398;-55
2022/06/12 11:59:14;;;;;;;8.30;6.80;;;32.40;99.90;;;;;;5048151;28;20385;-54
2022/06/12 12:02:03;;;;;;;8.40;7.10;;;32.50;99.90;;;;;;5048775;28;20720;-55
2022/06/12 12:04:43;;;;;;;8.70;6.40;;;32.60;99.90;;;;;;5048699;28;20539;-55
2022/06/12 12:07:28;;;;;;;9.95;6.22;;;32.60;99.90;;;;;;5048265;28;20778;-56
2022/06/12 12:10:20;;;;;;;8.63;7.00;;;32.70;99.90;;;;;;5047963;28;20456;-55
2022/06/12 12:12:52;;;;;;;7.95;7.07;;;32.60;99.90;;;;;;5047802;28;21190;-55
2022/06/12 12:15:25;;;;;;;8.07;7.10;;;32.40;99.90;;;;;;5028539;28;20409;-57
2022/06/12 12:17:53;;;;;;;8.68;7.35;;;32.30;99.90;;;;;;5029373;28;20462;-55
2022/06/12 12:20:24;;;;;;;10.13;6.07;;;32.20;99.90;;;;;;5028336;28;20936;-56
2022/06/12 12:23:04;;;;;;;8.50;6.72;;;31.90;99.90;;;;;;5029145;28;20446;-55
2022/06/12 12:25:36;;;;;;;9.23;6.07;;;31.90;99.90;;;;;;5028162;28;20403;-55
2022/06/12 12:28:16;;;;;;;8.13;6.93;;;32.20;99.90;;;;;;5028904;28;20934;-55
2022/06/12 12:30:43;;;;;;;8.57;6.10;;;32.10;99.90;;;;;;5028890;28;20536;-55
2022/06/12 12:33:15;;;;;;;9.20;6.28;;;32.40;99.90;;;;;;5029242;28;20405;-55
2022/06/12 12:41:16;;;;;;;8.00;6.53;;;32.40;99.90;;;;;;5029039;28;20375;-55
2022/06/12 12:43:58;;;;;;;7.88;5.75;;;32.00;99.90;;;;;;5039061;28;20607;-56
2022/06/12 12:46:46;;;;;;;7.80;5.90;;;32.00;99.90;;;;;;5046721;28;20473;-55
2022/06/12 12:49:24;;;;;;;9.00;5.90;;;31.70;99.90;;;;;;5047103;28;20754;-55
2022/06/12 12:51:50;;;;;;;7.88;7.07;;;31.30;99.90;;;;;;5048662;28;20941;-54
2022/06/12 12:54:19;;;;;;;8.20;6.80;;;31.50;99.90;;;;;;5047681;28;20477;-55
2022/06/12 12:57:02;;;;;;;9.65;7.50;;;31.60;99.90;;;;;;5047826;28;20438;-54
2022/06/12 12:59:45;;;;;;;8.77;6.90;;;31.70;99.90;;;;;;5047072;28;20428;-54
2022/06/12 13:02:35;;;;;;;9.90;7.10;;;31.50;99.90;;;;;;5048361;28;20394;-55
2022/06/12 13:05:17;;;;;;;8.70;7.70;;;31.20;99.90;;;;;;5048473;28;20432;-54
2022/06/12 13:08:14;;;;;;;9.13;7.40;;;31.30;99.90;;;;;;5043751;28;20498;-56
2022/06/12 13:11:01;;;;;;;9.98;8.18;;;31.20;99.90;;;;;;5041403;28;20500;-55
2022/06/12 13:13:51;;;;;;;7.60;6.53;;;30.90;99.90;;;;;;5048190;28;20850;-55
2022/06/12 13:16:47;;;;;;;7.90;6.60;;;30.70;99.90;;;;;;5051347;28;20385;-56
2022/06/12 13:19:40;;;;;;;8.32;6.97;;;30.50;99.90;;;;;;5051147;28;20393;-56
2022/06/12 13:22:18;;;;;;;8.60;7.80;;;30.20;99.90;;;;;;5052326;28;20473;-56
2022/06/12 13:24:51;;;;;;;9.63;7.50;;;30.50;99.90;;;;;;5051946;28;20401;-56
2022/06/12 13:27:31;;;;;;;8.60;6.90;;;30.80;99.90;;;;;;5050690;28;20404;-57
2022/06/12 13:29:57;;;;;;;10.00;7.63;;;31.00;99.90;;;;;;5048613;28;20397;-55
2022/06/12 13:32:32;;;;;;;7.78;5.80;;;31.10;99.90;;;;;;5050094;28;20480;-56
2022/06/12 13:35:03;;;;;;;10.30;7.30;;;30.70;99.90;;;;;;5050947;28;20421;-56